sensor_id;sensor_type;location;lat;lon;timestamp;temperature;humidity
37518;DHT22;23366;52.498;13.446;2023-04-08T00:02:19;5.90;99.90
37518;DHT22;23366;52.498;13.446;2023-04-08T00:04:45;5.80;99.90
37518;DHT22;23366;52.498;13.446;2023-04-08T00:07:11;5.80;99.90
37518;DHT22;23366;52.498;13.446;2023-04-08T00:09:36;5.80;99.90
37518;DHT22;23366;52.498;13.446;2023-04-08T00:12:03;5.80;99.90
37518;DHT22;23366;52.498;13.446;2023-04-08T00:14:28;5.90;99.90
37518;DHT22;23366;52.498;13.446;2023-04-08T00:16:54;5.80;99.90
37518;DHT22;23366;52.498;13.446;2023-04-08T00:19:19;5.90;99.90
37518;DHT22;23366;52.498;13.446;2023-04-08T00:21:45;5.90;99.90
37518;DHT22;23366;52.498;13.446;2023-04-08T00:24:11;5.90;99.90
37518;DHT22;23366;52.498;13.446;2023-04-08T00:26:37;5.90;99.90
37518;DHT22;23366;52.498;13.446;2023-04-08T00:29:02;5.90;99.90
37518;DHT22;23366;52.498;13.446;2023-04-08T00:31:28;5.90;99.90
37518;DHT22;23366;52.498;13.446;2023-04-08T00:33:53;5.90;99.90
37518;DHT22;23366;52.498;13.446;2023-04-08T00:36:19;5.90;99.90
37518;DHT22;23366;52.498;13.446;2023-04-08T00:38:45;5.90;99.90
37518;DHT22;23366;52.498;13.446;2023-04-08T00:41:11;5.80;99.90
37518;DHT22;23366;52.498;13.446;2023-04-08T00:43:36;5.70;99.90
37518;DHT22;23366;52.498;13.446;2023-04-08T00:46:02;5.70;99.90
37518;DHT22;23366;52.498;13.446;2023-04-08T00:48:28;5.70;99.90
37518;DHT22;23366;52.498;13.446;2023-04-08T00:50:54;5.80;99.90
37518;DHT22;23366;52.498;13.446;2023-04-08T00:53:20;5.80;99.90
37518;DHT22;23366;52.498;13.446;2023-04-08T00:55:45;5.80;99.90
37518;DHT22;23366;52.498;13.446;2023-04-08T00:58:11;5.80;99.90
37518;DHT22;23366;52.498;13.446;2023-04-08T01:00:41;5.80;99.90
37518;DHT22;23366;52.498;13.446;2023-04-08T01:03:13;5.80;99.90
37518;DHT22;23366;52.498;13.446;2023-04-08T01:08:16;5.80;99.90
37518;DHT22;23366;52.498;13.446;2023-04-08T01:10:44;5.80;99.90
37518;DHT22;23366;52.498;13.446;2023-04-08T01:13:13;5.80;99.90
37518;DHT22;23366;52.498;13.446;2023-04-08T01:15:41;5.80;99.90
37518;DHT22;23366;52.498;13.446;2023-04-08T01:18:11;5.80;99.90
37518;DHT22;23366;52.498;13.446;2023-04-08T01:20:37;5.80;99.90
37518;DHT22;23366;52.498;13.446;2023-04-08T01:23:14;5.90;99.90
37518;DHT22;23366;52.498;13.446;2023-04-08T01:25:53;5.80;99.90
37518;DHT22;23366;52.498;13.446;2023-04-08T01:28:20;5.90;99.90
37518;DHT22;23366;52.498;13.446;2023-04-08T01:30:48;5.80;99.90
37518;DHT22;23366;52.498;13.446;2023-04-08T01:33:16;5.80;99.90
37518;DHT22;23366;52.498;13.446;2023-04-08T01:35:43;5.90;99.90
37518;DHT22;23366;52.498;13.446;2023-04-08T01:38:14;5.90;99.90
37518;DHT22;23366;52.498;13.446;2023-04-08T01:40:41;5.80;99.90
37518;DHT22;23366;52.498;13.446;2023-04-08T01:43:08;5.80;99.90
37518;DHT22;23366;52.498;13.446;2023-04-08T01:45:35;5.70;99.90
37518;DHT22;23366;52.498;13.446;2023-04-08T01:48:00;5.70;99.90
37518;DHT22;23366;52.498;13.446;2023-04-08T01:50:27;5.70;99.90
37518;DHT22;23366;52.498;13.446;2023-04-08T01:52:53;5.70;99.90
37518;DHT22;23366;52.498;13.446;2023-04-08T01:55:20;5.70;99.90
37518;DHT22;23366;52.498;13.446;2023-04-08T01:57:49;5.70;99.90
37518;DHT22;23366;52.498;13.446;2023-04-08T02:00:23;5.70;99.90
37518;DHT22;23366;52.498;13.446;2023-04-08T02:02:51;5.70;99.90
37518;DHT22;23366;52.498;13.446;2023-04-08T02:05:17;5.80;99.90
37518;DHT22;23366;52.498;13.446;2023-04-08T02:07:43;5.80;99.90
37518;DHT22;23366;52.498;13.446;2023-04-08T02:10:11;5.90;99.90
37518;DHT22;23366;52.498;13.446;2023-04-08T02:12:36;5.90;99.90
37518;DHT22;23366;52.498;13.446;2023-04-08T02:15:02;5.80;99.90
37518;DHT22;23366;52.498;13.446;2023-04-08T02:17:48;5.80;99.90
37518;DHT22;23366;52.498;13.446;2023-04-08T02:20:16;5.80;99.90
37518;DHT22;23366;52.498;13.446;2023-04-08T02:23:06;5.70;99.90
37518;DHT22;23366;52.498;13.446;2023-04-08T02:25:35;5.80;99.90
37518;DHT22;23366;52.498;13.446;2023-04-08T02:28:05;5.80;99.90
37518;DHT22;23366;52.498;13.446;2023-04-08T02:30:31;5.70;99.90
37518;DHT22;23366;52.498;13.446;2023-04-08T02:33:00;5.70;99.90
37518;DHT22;23366;52.498;13.446;2023-04-08T02:35:27;5.80;99.90
37518;DHT22;23366;52.498;13.446;2023-04-08T02:37:53;5.80;99.90
37518;DHT22;23366;52.498;13.446;2023-04-08T02:40:25;5.80;99.90
37518;DHT22;23366;52.498;13.446;2023-04-08T02:42:51;5.80;99.90
37518;DHT22;23366;52.498;13.446;2023-04-08T02:45:17;5.80;99.90
37518;DHT22;23366;52.498;13.446;2023-04-08T02:47:43;5.80;99.90
37518;DHT22;23366;52.498;13.446;2023-04-08T02:50:09;5.70;99.90
37518;DHT22;23366;52.498;13.446;2023-04-08T02:52:36;5.80;99.90
37518;DHT22;23366;52.498;13.446;2023-04-08T02:55:01;5.80;99.90
37518;DHT22;23366;52.498;13.446;2023-04-08T02:57:27;5.80;99.90
37518;DHT22;23366;52.498;13.446;2023-04-08T02:59:52;5.80;99.90
37518;DHT22;23366;52.498;13.446;2023-04-08T03:02:18;5.70;99.90
37518;DHT22;23366;52.498;13.446;2023-04-08T03:04:43;5.70;99.90
37518;DHT22;23366;52.498;13.446;2023-04-08T03:07:09;5.70;99.90
37518;DHT22;23366;52.498;13.446;2023-04-08T03:09:36;5.80;99.90
37518;DHT22;23366;52.498;13.446;2023-04-08T03:12:01;5.80;99.90
37518;DHT22;23366;52.498;13.446;2023-04-08T03:14:27;5.80;99.90
37518;DHT22;23366;52.498;13.446;2023-04-08T03:16:52;5.80;99.90
37518;DHT22;23366;52.498;13.446;2023-04-08T03:19:18;5.80;99.90
37518;DHT22;23366;52.498;13.446;2023-04-08T03:21:43;5.80;99.90
37518;DHT22;23366;52.498;13.446;2023-04-08T03:24:09;5.80;99.90
37518;DHT22;23366;52.498;13.446;2023-04-08T03:26:35;5.70;99.90
37518;DHT22;23366;52.498;13.446;2023-04-08T03:29:01;5.80;99.90
37518;DHT22;23366;52.498;13.446;2023-04-08T03:31:26;5.80;99.90
37518;DHT22;23366;52.498;13.446;2023-04-08T03:33:52;5.80;99.90
37518;DHT22;23366;52.498;13.446;2023-04-08T03:36:17;5.80;99.90
37518;DHT22;23366;52.498;13.446;2023-04-08T03:38:43;5.80;99.90
37518;DHT22;23366;52.498;13.446;2023-04-08T03:41:09;5.80;99.90
37518;DHT22;23366;52.498;13.446;2023-04-08T03:43:34;5.80;99.90
37518;DHT22;23366;52.498;13.446;2023-04-08T03:46:00;5.80;99.90
37518;DHT22;23366;52.498;13.446;2023-04-08T03:48:26;5.80;99.90
37518;DHT22;23366;52.498;13.446;2023-04-08T03:50:52;5.80;99.90
37518;DHT22;23366;52.498;13.446;2023-04-08T03:53:17;5.80;99.90
37518;DHT22;23366;52.498;13.446;2023-04-08T03:55:43;5.80;99.90
37518;DHT22;23366;52.498;13.446;2023-04-08T03:58:08;5.80;99.90
37518;DHT22;23366;52.498;13.446;2023-04-08T04:00:34;5.70;99.90
37518;DHT22;23366;52.498;13.446;2023-04-08T04:03:00;5.70;99.90
37518;DHT22;23366;52.498;13.446;2023-04-08T04:05:26;5.70;99.90
37518;DHT22;23366;52.498;13.446;2023-04-08T04:07:51;5.70;99.90
37518;DHT22;23366;52.498;13.446;2023-04-08T04:10:17;5.80;99.90
37518;DHT22;23366;52.498;13.446;2023-04-08T04:12:42;5.80;99.90
37518;DHT22;23366;52.498;13.446;2023-04-08T04:15:09;5.80;99.90
37518;DHT22;23366;52.498;13.446;2023-04-08T04:17:35;5.70;99.90
37518;DHT22;23366;52.498;13.446;2023-04-08T04:20:03;5.80;99.90
37518;DHT22;23366;52.498;13.446;2023-04-08T04:22:29;5.80;99.90
37518;DHT22;23366;52.498;13.446;2023-04-08T04:24:55;5.80;99.90
37518;DHT22;23366;52.498;13.446;2023-04-08T04:27:20;5.80;99.90
37518;DHT22;23366;52.498;13.446;2023-04-08T04:29:46;5.80;99.90
37518;DHT22;23366;52.498;13.446;2023-04-08T04:32:11;5.80;99.90
37518;DHT22;23366;52.498;13.446;2023-04-08T04:34:37;5.80;99.90
37518;DHT22;23366;52.498;13.446;2023-04-08T04:37:02;5.80;99.90
37518;DHT22;23366;52.498;13.446;2023-04-08T04:39:28;5.70;99.90
37518;DHT22;23366;52.498;13.446;2023-04-08T04:41:53;5.70;99.90
37518;DHT22;23366;52.498;13.446;2023-04-08T04:44:19;5.70;99.90
37518;DHT22;23366;52.498;13.446;2023-04-08T04:46:44;5.70;99.90
37518;DHT22;23366;52.498;13.446;2023-04-08T04:49:10;5.70;99.90
37518;DHT22;23366;52.498;13.446;2023-04-08T04:51:35;5.80;99.90
37518;DHT22;23366;52.498;13.446;2023-04-08T04:54:01;5.80;99.90
37518;DHT22;23366;52.498;13.446;2023-04-08T04:56:27;5.80;99.90
37518;DHT22;23366;52.498;13.446;2023-04-08T04:58:52;5.80;99.90
37518;DHT22;23366;52.498;13.446;2023-04-08T05:01:18;5.80;99.90
37518;DHT22;23366;52.498;13.446;2023-04-08T05:03:44;5.80;99.90
37518;DHT22;23366;52.498;13.446;2023-04-08T05:06:09;5.90;99.90
37518;DHT22;23366;52.498;13.446;2023-04-08T05:08:35;5.80;99.90
37518;DHT22;23366;52.498;13.446;2023-04-08T05:11:01;5.90;99.90
37518;DHT22;23366;52.498;13.446;2023-04-08T05:13:31;5.90;99.90
37518;DHT22;23366;52.498;13.446;2023-04-08T05:15:56;6.00;99.90
37518;DHT22;23366;52.498;13.446;2023-04-08T05:18:22;5.90;99.90
37518;DHT22;23366;52.498;13.446;2023-04-08T05:20:47;5.90;99.90
37518;DHT22;23366;52.498;13.446;2023-04-08T05:23:13;5.90;99.90
37518;DHT22;23366;52.498;13.446;2023-04-08T05:25:38;6.00;99.90
37518;DHT22;23366;52.498;13.446;2023-04-08T05:28:04;5.90;99.90
37518;DHT22;23366;52.498;13.446;2023-04-08T05:30:30;6.00;99.90
37518;DHT22;23366;52.498;13.446;2023-04-08T05:32:55;6.00;99.90
37518;DHT22;23366;52.498;13.446;2023-04-08T05:35:21;6.10;99.90
37518;DHT22;23366;52.498;13.446;2023-04-08T05:37:46;6.10;99.90
37518;DHT22;23366;52.498;13.446;2023-04-08T05:40:12;6.10;99.90
37518;DHT22;23366;52.498;13.446;2023-04-08T05:42:37;6.20;99.90
37518;DHT22;23366;52.498;13.446;2023-04-08T05:45:03;6.10;99.90
37518;DHT22;23366;52.498;13.446;2023-04-08T05:47:29;6.10;99.90
37518;DHT22;23366;52.498;13.446;2023-04-08T05:49:55;6.10;99.90
37518;DHT22;23366;52.498;13.446;2023-04-08T05:52:22;6.20;99.90
37518;DHT22;23366;52.498;13.446;2023-04-08T05:54:47;6.20;99.90
37518;DHT22;23366;52.498;13.446;2023-04-08T05:57:13;6.20;99.90
37518;DHT22;23366;52.498;13.446;2023-04-08T05:59:38;6.20;99.90
37518;DHT22;23366;52.498;13.446;2023-04-08T06:02:04;6.20;99.90
37518;DHT22;23366;52.498;13.446;2023-04-08T06:04:29;6.20;99.90
37518;DHT22;23366;52.498;13.446;2023-04-08T06:06:55;6.20;99.90
37518;DHT22;23366;52.498;13.446;2023-04-08T06:09:25;6.20;99.90
37518;DHT22;23366;52.498;13.446;2023-04-08T06:11:51;6.30;99.90
37518;DHT22;23366;52.498;13.446;2023-04-08T06:14:16;6.20;99.90
37518;DHT22;23366;52.498;13.446;2023-04-08T06:16:42;6.30;99.90
37518;DHT22;23366;52.498;13.446;2023-04-08T06:19:08;6.30;99.90
37518;DHT22;23366;52.498;13.446;2023-04-08T06:21:34;6.40;99.90
37518;DHT22;23366;52.498;13.446;2023-04-08T06:24:00;6.60;99.90
37518;DHT22;23366;52.498;13.446;2023-04-08T06:26:25;6.70;99.90
37518;DHT22;23366;52.498;13.446;2023-04-08T06:28:52;6.80;99.90
37518;DHT22;23366;52.498;13.446;2023-04-08T06:31:18;6.70;99.90
37518;DHT22;23366;52.498;13.446;2023-04-08T06:33:43;6.70;99.90
37518;DHT22;23366;52.498;13.446;2023-04-08T06:36:09;6.70;99.90
37518;DHT22;23366;52.498;13.446;2023-04-08T06:38:34;6.70;99.90
37518;DHT22;23366;52.498;13.446;2023-04-08T06:41:04;6.80;99.90
37518;DHT22;23366;52.498;13.446;2023-04-08T06:43:31;6.90;99.90
37518;DHT22;23366;52.498;13.446;2023-04-08T06:45:57;6.90;99.90
37518;DHT22;23366;52.498;13.446;2023-04-08T06:48:24;6.90;99.90
37518;DHT22;23366;52.498;13.446;2023-04-08T06:50:58;6.90;99.90
37518;DHT22;23366;52.498;13.446;2023-04-08T06:53:24;6.80;99.90
37518;DHT22;23366;52.498;13.446;2023-04-08T06:55:50;6.80;99.90
37518;DHT22;23366;52.498;13.446;2023-04-08T06:58:15;6.70;99.90
37518;DHT22;23366;52.498;13.446;2023-04-08T07:00:41;6.80;99.90
37518;DHT22;23366;52.498;13.446;2023-04-08T07:03:07;6.90;99.90
37518;DHT22;23366;52.498;13.446;2023-04-08T07:05:35;7.10;99.90
37518;DHT22;23366;52.498;13.446;2023-04-08T07:08:01;7.10;99.90
37518;DHT22;23366;52.498;13.446;2023-04-08T07:10:27;7.30;99.90
37518;DHT22;23366;52.498;13.446;2023-04-08T07:12:53;7.40;99.90
37518;DHT22;23366;52.498;13.446;2023-04-08T07:15:18;7.60;99.90
37518;DHT22;23366;52.498;13.446;2023-04-08T07:17:44;7.60;99.90
37518;DHT22;23366;52.498;13.446;2023-04-08T07:20:11;7.60;99.90
37518;DHT22;23366;52.498;13.446;2023-04-08T07:22:36;7.60;99.90
37518;DHT22;23366;52.498;13.446;2023-04-08T07:25:02;7.90;99.90
37518;DHT22;23366;52.498;13.446;2023-04-08T07:27:27;8.20;99.90
37518;DHT22;23366;52.498;13.446;2023-04-08T07:29:53;8.50;99.90
37518;DHT22;23366;52.498;13.446;2023-04-08T07:32:19;8.40;99.90
37518;DHT22;23366;52.498;13.446;2023-04-08T07:34:45;8.60;99.90
37518;DHT22;23366;52.498;13.446;2023-04-08T07:37:10;8.70;99.90
37518;DHT22;23366;52.498;13.446;2023-04-08T07:39:36;8.60;99.90
37518;DHT22;23366;52.498;13.446;2023-04-08T07:42:01;8.40;99.90
37518;DHT22;23366;52.498;13.446;2023-04-08T07:44:27;8.20;99.90
37518;DHT22;23366;52.498;13.446;2023-04-08T07:46:52;8.30;99.90
37518;DHT22;23366;52.498;13.446;2023-04-08T07:49:18;8.40;99.90
37518;DHT22;23366;52.498;13.446;2023-04-08T07:51:43;8.30;99.90
37518;DHT22;23366;52.498;13.446;2023-04-08T07:54:09;8.30;99.90
37518;DHT22;23366;52.498;13.446;2023-04-08T07:56:36;8.30;99.90
37518;DHT22;23366;52.498;13.446;2023-04-08T07:59:05;8.30;99.90
37518;DHT22;23366;52.498;13.446;2023-04-08T08:01:30;8.20;99.90
37518;DHT22;23366;52.498;13.446;2023-04-08T08:03:59;8.30;99.90
37518;DHT22;23366;52.498;13.446;2023-04-08T08:06:24;8.20;99.90
37518;DHT22;23366;52.498;13.446;2023-04-08T08:08:50;8.30;99.90
37518;DHT22;23366;52.498;13.446;2023-04-08T08:11:17;8.50;99.90
37518;DHT22;23366;52.498;13.446;2023-04-08T08:13:44;8.70;99.90
37518;DHT22;23366;52.498;13.446;2023-04-08T08:16:09;8.90;99.90
37518;DHT22;23366;52.498;13.446;2023-04-08T08:18:36;9.10;99.90
37518;DHT22;23366;52.498;13.446;2023-04-08T08:21:03;9.40;99.90
37518;DHT22;23366;52.498;13.446;2023-04-08T08:23:30;9.60;99.90
37518;DHT22;23366;52.498;13.446;2023-04-08T08:26:00;9.70;99.90
37518;DHT22;23366;52.498;13.446;2023-04-08T08:28:26;9.80;99.90
37518;DHT22;23366;52.498;13.446;2023-04-08T08:30:52;9.90;99.90
37518;DHT22;23366;52.498;13.446;2023-04-08T08:33:18;9.70;99.90
37518;DHT22;23366;52.498;13.446;2023-04-08T08:35:44;9.50;99.90
37518;DHT22;23366;52.498;13.446;2023-04-08T08:38:09;9.50;99.90
37518;DHT22;23366;52.498;13.446;2023-04-08T08:40:35;9.40;99.90
37518;DHT22;23366;52.498;13.446;2023-04-08T08:43:01;9.50;99.90
37518;DHT22;23366;52.498;13.446;2023-04-08T08:45:26;9.70;99.90
37518;DHT22;23366;52.498;13.446;2023-04-08T08:47:52;10.30;99.90
37518;DHT22;23366;52.498;13.446;2023-04-08T08:50:18;10.30;99.90
37518;DHT22;23366;52.498;13.446;2023-04-08T08:52:48;10.40;99.90
37518;DHT22;23366;52.498;13.446;2023-04-08T08:55:14;10.30;99.90
37518;DHT22;23366;52.498;13.446;2023-04-08T08:57:40;10.20;99.90
37518;DHT22;23366;52.498;13.446;2023-04-08T09:00:06;10.10;99.90
37518;DHT22;23366;52.498;13.446;2023-04-08T09:02:32;9.80;99.90
37518;DHT22;23366;52.498;13.446;2023-04-08T09:05:00;9.50;99.90
37518;DHT22;23366;52.498;13.446;2023-04-08T09:07:27;9.30;99.90
37518;DHT22;23366;52.498;13.446;2023-04-08T09:09:54;9.20;99.90
37518;DHT22;23366;52.498;13.446;2023-04-08T09:12:20;9.30;99.90
37518;DHT22;23366;52.498;13.446;2023-04-08T09:14:46;9.20;99.90
37518;DHT22;23366;52.498;13.446;2023-04-08T09:17:13;9.20;99.90
37518;DHT22;23366;52.498;13.446;2023-04-08T09:19:39;9.20;99.90
37518;DHT22;23366;52.498;13.446;2023-04-08T09:22:08;9.10;99.90
37518;DHT22;23366;52.498;13.446;2023-04-08T09:24:35;9.10;99.90
37518;DHT22;23366;52.498;13.446;2023-04-08T09:27:02;9.00;99.90
37518;DHT22;23366;52.498;13.446;2023-04-08T09:29:28;9.00;99.90
37518;DHT22;23366;52.498;13.446;2023-04-08T09:32:00;8.90;99.90
37518;DHT22;23366;52.498;13.446;2023-04-08T09:34:28;8.90;99.90
37518;DHT22;23366;52.498;13.446;2023-04-08T09:36:54;8.90;99.90
37518;DHT22;23366;52.498;13.446;2023-04-08T09:39:20;8.80;99.90
37518;DHT22;23366;52.498;13.446;2023-04-08T09:41:49;9.00;99.90
37518;DHT22;23366;52.498;13.446;2023-04-08T09:44:17;9.00;99.90
37518;DHT22;23366;52.498;13.446;2023-04-08T09:47:07;9.10;99.90
37518;DHT22;23366;52.498;13.446;2023-04-08T09:49:42;9.20;99.90
37518;DHT22;23366;52.498;13.446;2023-04-08T09:52:14;9.30;99.90
37518;DHT22;23366;52.498;13.446;2023-04-08T09:55:00;9.40;99.90
37518;DHT22;23366;52.498;13.446;2023-04-08T09:57:54;9.90;99.90
37518;DHT22;23366;52.498;13.446;2023-04-08T10:00:27;10.30;99.90
37518;DHT22;23366;52.498;13.446;2023-04-08T10:03:04;10.80;99.90
37518;DHT22;23366;52.498;13.446;2023-04-08T10:05:31;11.00;99.90
37518;DHT22;23366;52.498;13.446;2023-04-08T10:07:58;11.00;99.90
37518;DHT22;23366;52.498;13.446;2023-04-08T10:10:25;11.00;99.90
37518;DHT22;23366;52.498;13.446;2023-04-08T10:12:51;10.70;99.90
37518;DHT22;23366;52.498;13.446;2023-04-08T10:15:28;10.70;99.90
37518;DHT22;23366;52.498;13.446;2023-04-08T10:18:28;10.80;99.90
37518;DHT22;23366;52.498;13.446;2023-04-08T10:20:46;11.30;99.90
37518;DHT22;23366;52.498;13.446;2023-04-08T10:23:13;11.70;99.90
37518;DHT22;23366;52.498;13.446;2023-04-08T10:25:49;12.00;99.90
37518;DHT22;23366;52.498;13.446;2023-04-08T10:30:53;12.50;99.90
37518;DHT22;23366;52.498;13.446;2023-04-08T10:38:34;12.80;99.90
37518;DHT22;23366;52.498;13.446;2023-04-08T10:40:59;12.80;99.90
37518;DHT22;23366;52.498;13.446;2023-04-08T10:43:25;12.60;99.90
37518;DHT22;23366;52.498;13.446;2023-04-08T10:45:52;12.10;99.90
37518;DHT22;23366;52.498;13.446;2023-04-08T10:48:20;12.20;99.90
37518;DHT22;23366;52.498;13.446;2023-04-08T10:50:53;12.00;99.90
37518;DHT22;23366;52.498;13.446;2023-04-08T10:53:33;12.00;99.90
37518;DHT22;23366;52.498;13.446;2023-04-08T10:56:07;12.20;99.90
37518;DHT22;23366;52.498;13.446;2023-04-08T10:58:46;12.00;99.90
37518;DHT22;23366;52.498;13.446;2023-04-08T11:01:12;12.00;99.90
37518;DHT22;23366;52.498;13.446;2023-04-08T11:03:38;12.10;99.90
37518;DHT22;23366;52.498;13.446;2023-04-08T11:06:03;12.40;99.90
37518;DHT22;23366;52.498;13.446;2023-04-08T11:08:32;12.30;99.90
37518;DHT22;23366;52.498;13.446;2023-04-08T11:10:59;12.10;99.90
37518;DHT22;23366;52.498;13.446;2023-04-08T11:13:41;11.90;99.90
37518;DHT22;23366;52.498;13.446;2023-04-08T11:16:07;11.70;99.90
37518;DHT22;23366;52.498;13.446;2023-04-08T11:18:34;11.70;99.90
37518;DHT22;23366;52.498;13.446;2023-04-08T11:21:00;11.40;99.90
37518;DHT22;23366;52.498;13.446;2023-04-08T11:23:26;11.40;99.90
37518;DHT22;23366;52.498;13.446;2023-04-08T11:25:52;11.50;99.90
37518;DHT22;23366;52.498;13.446;2023-04-08T11:28:18;11.60;99.90
37518;DHT22;23366;52.498;13.446;2023-04-08T11:30:45;11.60;99.90
37518;DHT22;23366;52.498;13.446;2023-04-08T11:33:13;11.70;99.90
37518;DHT22;23366;52.498;13.446;2023-04-08T11:35:40;11.90;99.90
37518;DHT22;23366;52.498;13.446;2023-04-08T11:38:10;12.10;99.90
37518;DHT22;23366;52.498;13.446;2023-04-08T11:40:36;12.30;99.90
37518;DHT22;23366;52.498;13.446;2023-04-08T11:43:14;12.30;99.90
37518;DHT22;23366;52.498;13.446;2023-04-08T11:45:43;12.50;99.90
37518;DHT22;23366;52.498;13.446;2023-04-08T11:48:14;12.80;99.90
37518;DHT22;23366;52.498;13.446;2023-04-08T11:50:41;12.80;99.90
37518;DHT22;23366;52.498;13.446;2023-04-08T11:53:18;12.60;99.90
37518;DHT22;23366;52.498;13.446;2023-04-08T11:55:44;12.60;99.90
37518;DHT22;23366;52.498;13.446;2023-04-08T11:58:10;12.60;99.90
37518;DHT22;23366;52.498;13.446;2023-04-08T12:00:48;12.50;99.90
37518;DHT22;23366;52.498;13.446;2023-04-08T12:03:13;12.60;99.90
37518;DHT22;23366;52.498;13.446;2023-04-08T12:05:40;12.70;99.90
37518;DHT22;23366;52.498;13.446;2023-04-08T12:08:06;12.80;99.90
37518;DHT22;23366;52.498;13.446;2023-04-08T12:10:32;12.90;99.90
37518;DHT22;23366;52.498;13.446;2023-04-08T12:12:57;13.10;99.90
37518;DHT22;23366;52.498;13.446;2023-04-08T12:15:24;13.20;99.90
37518;DHT22;23366;52.498;13.446;2023-04-08T12:17:50;13.20;99.90
37518;DHT22;23366;52.498;13.446;2023-04-08T12:20:16;13.20;99.90
37518;DHT22;23366;52.498;13.446;2023-04-08T12:22:41;12.80;99.90
37518;DHT22;23366;52.498;13.446;2023-04-08T12:25:07;12.60;99.90
37518;DHT22;23366;52.498;13.446;2023-04-08T12:27:37;12.40;99.90
37518;DHT22;23366;52.498;13.446;2023-04-08T12:30:02;12.30;99.90
37518;DHT22;23366;52.498;13.446;2023-04-08T12:32:28;12.30;99.90
37518;DHT22;23366;52.498;13.446;2023-04-08T12:34:54;12.30;99.90
37518;DHT22;23366;52.498;13.446;2023-04-08T12:37:20;12.40;99.90
37518;DHT22;23366;52.498;13.446;2023-04-08T12:39:46;12.50;99.90
37518;DHT22;23366;52.498;13.446;2023-04-08T12:42:12;12.60;99.90
37518;DHT22;23366;52.498;13.446;2023-04-08T12:44:37;12.60;99.90
37518;DHT22;23366;52.498;13.446;2023-04-08T12:47:03;12.60;99.90
37518;DHT22;23366;52.498;13.446;2023-04-08T12:49:28;12.40;99.90
37518;DHT22;23366;52.498;13.446;2023-04-08T12:51:54;12.20;99.90
37518;DHT22;23366;52.498;13.446;2023-04-08T12:54:20;12.20;99.90
37518;DHT22;23366;52.498;13.446;2023-04-08T12:56:46;12.10;99.90
37518;DHT22;23366;52.498;13.446;2023-04-08T12:59:13;12.20;99.90
37518;DHT22;23366;52.498;13.446;2023-04-08T13:01:38;12.30;99.90
37518;DHT22;23366;52.498;13.446;2023-04-08T13:04:04;12.20;99.90
37518;DHT22;23366;52.498;13.446;2023-04-08T13:06:32;12.10;99.90
37518;DHT22;23366;52.498;13.446;2023-04-08T13:08:58;12.10;99.90
37518;DHT22;23366;52.498;13.446;2023-04-08T13:11:24;12.20;99.90
37518;DHT22;23366;52.498;13.446;2023-04-08T13:13:49;12.30;99.90
37518;DHT22;23366;52.498;13.446;2023-04-08T13:16:15;12.40;99.90
37518;DHT22;23366;52.498;13.446;2023-04-08T13:18:40;12.50;99.90
37518;DHT22;23366;52.498;13.446;2023-04-08T13:21:07;12.60;99.90
37518;DHT22;23366;52.498;13.446;2023-04-08T13:23:32;12.60;99.90
37518;DHT22;23366;52.498;13.446;2023-04-08T13:25:58;12.50;99.90
37518;DHT22;23366;52.498;13.446;2023-04-08T13:28:23;12.30;99.90
37518;DHT22;23366;52.498;13.446;2023-04-08T13:30:49;12.10;99.90
37518;DHT22;23366;52.498;13.446;2023-04-08T13:33:15;12.10;99.90
37518;DHT22;23366;52.498;13.446;2023-04-08T13:35:42;12.10;99.90
37518;DHT22;23366;52.498;13.446;2023-04-08T13:38:07;12.10;99.90
37518;DHT22;23366;52.498;13.446;2023-04-08T13:40:33;12.00;99.90
37518;DHT22;23366;52.498;13.446;2023-04-08T13:42:59;12.10;99.90
37518;DHT22;23366;52.498;13.446;2023-04-08T13:45:24;12.10;99.90
37518;DHT22;23366;52.498;13.446;2023-04-08T13:47:50;12.20;99.90
37518;DHT22;23366;52.498;13.446;2023-04-08T13:50:16;12.30;99.90
37518;DHT22;23366;52.498;13.446;2023-04-08T13:52:41;12.40;99.90
37518;DHT22;23366;52.498;13.446;2023-04-08T13:55:07;12.50;99.90
37518;DHT22;23366;52.498;13.446;2023-04-08T13:57:32;12.50;99.90
37518;DHT22;23366;52.498;13.446;2023-04-08T13:59:58;12.50;99.90
37518;DHT22;23366;52.498;13.446;2023-04-08T14:02:23;12.40;99.90
37518;DHT22;23366;52.498;13.446;2023-04-08T14:04:49;12.30;99.90
37518;DHT22;23366;52.498;13.446;2023-04-08T14:07:14;12.20;99.90
37518;DHT22;23366;52.498;13.446;2023-04-08T14:09:40;12.10;99.90
37518;DHT22;23366;52.498;13.446;2023-04-08T14:12:06;12.10;99.90
37518;DHT22;23366;52.498;13.446;2023-04-08T14:14:31;12.00;99.90
37518;DHT22;23366;52.498;13.446;2023-04-08T14:17:03;12.00;99.90
37518;DHT22;23366;52.498;13.446;2023-04-08T14:19:28;12.00;99.90
37518;DHT22;23366;52.498;13.446;2023-04-08T14:21:54;12.00;99.90
37518;DHT22;23366;52.498;13.446;2023-04-08T14:24:31;12.10;99.90
37518;DHT22;23366;52.498;13.446;2023-04-08T14:27:18;12.10;99.90
37518;DHT22;23366;52.498;13.446;2023-04-08T14:29:44;12.20;99.90
37518;DHT22;23366;52.498;13.446;2023-04-08T14:32:09;12.30;99.90
37518;DHT22;23366;52.498;13.446;2023-04-08T14:34:35;12.40;99.90
37518;DHT22;23366;52.498;13.446;2023-04-08T14:37:01;12.50;99.90
37518;DHT22;23366;52.498;13.446;2023-04-08T14:39:28;12.50;99.90
37518;DHT22;23366;52.498;13.446;2023-04-08T14:41:53;12.50;99.90
37518;DHT22;23366;52.498;13.446;2023-04-08T14:44:19;12.60;99.90
37518;DHT22;23366;52.498;13.446;2023-04-08T14:46:44;12.60;99.90
37518;DHT22;23366;52.498;13.446;2023-04-08T14:49:10;12.50;99.90
37518;DHT22;23366;52.498;13.446;2023-04-08T14:51:36;12.30;99.90
37518;DHT22;23366;52.498;13.446;2023-04-08T14:54:02;12.30;99.90
37518;DHT22;23366;52.498;13.446;2023-04-08T14:56:27;12.20;99.90
37518;DHT22;23366;52.498;13.446;2023-04-08T14:58:53;12.10;99.90
37518;DHT22;23366;52.498;13.446;2023-04-08T15:01:19;12.10;99.90
37518;DHT22;23366;52.498;13.446;2023-04-08T15:03:48;12.10;99.90
37518;DHT22;23366;52.498;13.446;2023-04-08T15:06:14;12.20;99.90
37518;DHT22;23366;52.498;13.446;2023-04-08T15:08:45;12.30;99.90
37518;DHT22;23366;52.498;13.446;2023-04-08T15:11:10;12.30;99.90
37518;DHT22;23366;52.498;13.446;2023-04-08T15:13:36;12.30;99.90
37518;DHT22;23366;52.498;13.446;2023-04-08T15:16:02;12.30;99.90
37518;DHT22;23366;52.498;13.446;2023-04-08T15:18:29;12.30;99.90
37518;DHT22;23366;52.498;13.446;2023-04-08T15:20:55;12.30;99.90
37518;DHT22;23366;52.498;13.446;2023-04-08T15:23:20;12.40;99.90
37518;DHT22;23366;52.498;13.446;2023-04-08T15:25:46;12.40;99.90
37518;DHT22;23366;52.498;13.446;2023-04-08T15:28:13;12.50;99.90
37518;DHT22;23366;52.498;13.446;2023-04-08T15:30:41;12.50;99.90
37518;DHT22;23366;52.498;13.446;2023-04-08T15:33:33;12.60;99.90
37518;DHT22;23366;52.498;13.446;2023-04-08T15:36:13;12.50;99.90